sensor_id;sensor_type;location;lat;lon;timestamp;pressure;altitude;pressure_sealevel;temperature;humidity
48053;BME280;33824;51.600;5.718;2023-05-01T00:02:09;101580.00;;;12.99;70.23
48053;BME280;33824;51.600;5.718;2023-05-01T00:04:35;101570.16;;;12.99;70.07
48053;BME280;33824;51.600;5.718;2023-05-01T00:07:01;101568.31;;;13.00;69.80
48053;BME280;33824;51.600;5.718;2023-05-01T00:09:27;101565.63;;;13.00;69.89
48053;BME280;33824;51.600;5.718;2023-05-01T00:11:52;101562.13;;;12.99;70.01
48053;BME280;33824;51.600;5.718;2023-05-01T00:14:18;101563.13;;;12.98;70.15
48053;BME280;33824;51.600;5.718;2023-05-01T00:16:43;101550.06;;;12.95;70.17
48053;BME280;33824;51.600;5.718;2023-05-01T00:19:11;101551.91;;;12.95;69.93
48053;BME280;33824;51.600;5.718;2023-05-01T00:21:37;101545.06;;;12.92;70.07
48053;BME280;33824;51.600;5.718;2023-05-01T00:24:03;101541.91;;;12.89;70.50
48053;BME280;33824;51.600;5.718;2023-05-01T00:26:29;101532.38;;;12.86;70.35
48053;BME280;33824;51.600;5.718;2023-05-01T00:28:56;101543.06;;;12.86;70.27
48053;BME280;33824;51.600;5.718;2023-05-01T00:31:25;101532.22;;;12.80;70.34
48053;BME280;33824;51.600;5.718;2023-05-01T00:33:51;101534.75;;;12.81;70.38
48053;BME280;33824;51.600;5.718;2023-05-01T00:36:16;101529.53;;;12.80;70.53
48053;BME280;33824;51.600;5.718;2023-05-01T00:38:42;101521.03;;;12.76;70.55
48053;BME280;33824;51.600;5.718;2023-05-01T00:41:07;101525.72;;;12.74;70.70
48053;BME280;33824;51.600;5.718;2023-05-01T00:43:33;101526.53;;;12.75;70.57
48053;BME280;33824;51.600;5.718;2023-05-01T00:45:59;101524.91;;;12.74;70.62
48053;BME280;33824;51.600;5.718;2023-05-01T00:48:25;101518.03;;;12.71;70.44
48053;BME280;33824;51.600;5.718;2023-05-01T00:50:51;101517.38;;;12.69;70.94
48053;BME280;33824;51.600;5.718;2023-05-01T00:53:18;101514.69;;;12.69;70.67
48053;BME280;33824;51.600;5.718;2023-05-01T00:55:44;101508.34;;;12.70;70.76
48053;BME280;33824;51.600;5.718;2023-05-01T00:58:11;101511.84;;;12.71;70.84
48053;BME280;33824;51.600;5.718;2023-05-01T01:00:37;101505.69;;;12.70;70.64
48053;BME280;33824;51.600;5.718;2023-05-01T01:03:03;101503.50;;;12.74;70.58
48053;BME280;33824;51.600;5.718;2023-05-01T01:05:31;101491.09;;;12.73;70.66
48053;BME280;33824;51.600;5.718;2023-05-01T01:08:05;101489.28;;;12.73;70.57
48053;BME280;33824;51.600;5.718;2023-05-01T01:10:53;101491.28;;;12.63;70.44
48053;BME280;33824;51.600;5.718;2023-05-01T01:13:37;101487.97;;;12.61;70.47
48053;BME280;33824;51.600;5.718;2023-05-01T01:26:59;101479.94;;;12.61;70.61
48053;BME280;33824;51.600;5.718;2023-05-01T01:35:26;101468.38;;;12.69;70.66
48053;BME280;33824;51.600;5.718;2023-05-01T01:38:03;101465.34;;;12.72;70.52
48053;BME280;33824;51.600;5.718;2023-05-01T01:40:48;101455.69;;;12.63;70.69
48053;BME280;33824;51.600;5.718;2023-05-01T01:43:17;101452.16;;;12.70;70.62
48053;BME280;33824;51.600;5.718;2023-05-01T01:45:51;101449.66;;;12.69;70.47
48053;BME280;33824;51.600;5.718;2023-05-01T01:48:23;101451.97;;;12.72;70.42
48053;BME280;33824;51.600;5.718;2023-05-01T01:50:52;101450.81;;;12.74;70.58
48053;BME280;33824;51.600;5.718;2023-05-01T01:53:19;101446.09;;;12.76;70.47
48053;BME280;33824;51.600;5.718;2023-05-01T01:55:46;101440.91;;;12.75;70.97
48053;BME280;33824;51.600;5.718;2023-05-01T01:58:14;101433.91;;;12.74;70.86
48053;BME280;33824;51.600;5.718;2023-05-01T02:00:43;101429.72;;;12.71;70.99
48053;BME280;33824;51.600;5.718;2023-05-01T02:03:09;101426.41;;;12.69;70.85
48053;BME280;33824;51.600;5.718;2023-05-01T02:05:37;101430.44;;;12.65;71.08
48053;BME280;33824;51.600;5.718;2023-05-01T02:08:04;101433.75;;;12.67;71.32
48053;BME280;33824;51.600;5.718;2023-05-01T02:10:31;101424.41;;;12.63;71.38
48053;BME280;33824;51.600;5.718;2023-05-01T02:12:57;101419.06;;;12.63;71.34
48053;BME280;33824;51.600;5.718;2023-05-01T02:15:24;101412.06;;;12.62;71.38
48053;BME280;33824;51.600;5.718;2023-05-01T02:17:52;101414.91;;;12.61;71.45
48053;BME280;33824;51.600;5.718;2023-05-01T02:20:20;101410.72;;;12.58;71.35
48053;BME280;33824;51.600;5.718;2023-05-01T02:22:47;101410.25;;;12.55;71.78
48053;BME280;33824;51.600;5.718;2023-05-01T02:25:14;101408.56;;;12.54;71.68
48053;BME280;33824;51.600;5.718;2023-05-01T02:27:50;101408.59;;;12.45;71.87
48053;BME280;33824;51.600;5.718;2023-05-01T02:30:17;101403.72;;;12.49;71.63
48053;BME280;33824;51.600;5.718;2023-05-01T02:32:43;101397.91;;;12.45;71.69
48053;BME280;33824;51.600;5.718;2023-05-01T02:35:09;101394.72;;;12.42;71.70
48053;BME280;33824;51.600;5.718;2023-05-01T02:37:35;101391.56;;;12.38;71.88
48053;BME280;33824;51.600;5.718;2023-05-01T02:40:02;101388.56;;;12.33;71.95
48053;BME280;33824;51.600;5.718;2023-05-01T02:42:28;101385.59;;;12.28;72.01
48053;BME280;33824;51.600;5.718;2023-05-01T02:45:00;101385.63;;;12.20;72.01
48053;BME280;33824;51.600;5.718;2023-05-01T02:47:27;101387.25;;;12.21;72.07
48053;BME280;33824;51.600;5.718;2023-05-01T02:49:55;101387.44;;;12.20;72.46
48053;BME280;33824;51.600;5.718;2023-05-01T02:52:21;101383.09;;;12.19;72.46
48053;BME280;33824;51.600;5.718;2023-05-01T02:54:48;101383.78;;;12.21;72.32
48053;BME280;33824;51.600;5.718;2023-05-01T02:57:15;101377.09;;;12.25;72.62
48053;BME280;33824;51.600;5.718;2023-05-01T02:59:41;101375.41;;;12.24;72.54
48053;BME280;33824;51.600;5.718;2023-05-01T08:41:26;101263.00;;;18.91;63.91
48053;BME280;33824;51.600;5.718;2023-05-01T08:43:55;101265.38;;;19.05;62.39
48053;BME280;33824;51.600;5.718;2023-05-01T08:46:31;101257.97;;;19.19;62.00
48053;BME280;33824;51.600;5.718;2023-05-01T08:48:58;101260.13;;;19.35;61.20
48053;BME280;33824;51.600;5.718;2023-05-01T08:51:25;101257.81;;;19.63;61.00
48053;BME280;33824;51.600;5.718;2023-05-01T08:53:52;101244.75;;;19.79;60.77
48053;BME280;33824;51.600;5.718;2023-05-01T08:56:20;101253.78;;;19.91;60.92
48053;BME280;33824;51.600;5.718;2023-05-01T08:58:48;101251.47;;;20.13;60.72
48053;BME280;33824;51.600;5.718;2023-05-01T09:01:15;101241.84;;;20.35;59.98
48053;BME280;33824;51.600;5.718;2023-05-01T09:03:42;101243.81;;;20.57;59.86
48053;BME280;33824;51.600;5.718;2023-05-01T09:06:09;101241.69;;;20.59;57.20
48053;BME280;33824;51.600;5.718;2023-05-01T09:08:35;101249.41;;;20.44;57.88
48053;BME280;33824;51.600;5.718;2023-05-01T09:11:02;101250.22;;;20.45;58.09
48053;BME280;33824;51.600;5.718;2023-05-01T09:13:28;101251.63;;;20.66;58.06
48053;BME280;33824;51.600;5.718;2023-05-01T09:15:54;101250.03;;;20.88;58.13
48053;BME280;33824;51.600;5.718;2023-05-01T09:18:19;101248.38;;;20.87;57.58
48053;BME280;33824;51.600;5.718;2023-05-01T09:20:46;101241.44;;;20.91;57.32
48053;BME280;33824;51.600;5.718;2023-05-01T09:23:11;101247.59;;;21.10;57.23
48053;BME280;33824;51.600;5.718;2023-05-01T09:25:37;101251.59;;;20.95;55.95
48053;BME280;33824;51.600;5.718;2023-05-01T09:28:04;101251.44;;;20.90;56.63
48053;BME280;33824;51.600;5.718;2023-05-01T09:30:36;101246.88;;;21.02;56.58
48053;BME280;33824;51.600;5.718;2023-05-01T09:33:10;101251.94;;;20.99;56.22
48053;BME280;33824;51.600;5.718;2023-05-01T09:38:22;101251.97;;;21.11;55.76
48053;BME280;33824;51.600;5.718;2023-05-01T09:40:49;101250.50;;;21.26;55.11
48053;BME280;33824;51.600;5.718;2023-05-01T09:43:26;101247.25;;;21.06;54.94
48053;BME280;33824;51.600;5.718;2023-05-01T09:45:59;101241.97;;;21.11;54.42
48053;BME280;33824;51.600;5.718;2023-05-01T09:48:25;101238.03;;;20.95;53.58
48053;BME280;33824;51.600;5.718;2023-05-01T09:50:50;101246.16;;;20.95;54.62
48053;BME280;33824;51.600;5.718;2023-05-01T09:53:16;101241.81;;;21.06;54.58
48053;BME280;33824;51.600;5.718;2023-05-01T09:55:42;101245.34;;;20.95;53.94
48053;BME280;33824;51.600;5.718;2023-05-01T09:58:27;101247.25;;;21.06;54.08
48053;BME280;33824;51.600;5.718;2023-05-01T10:00:52;101245.78;;;20.80;52.43
48053;BME280;33824;51.600;5.718;2023-05-01T10:03:18;101249.06;;;20.82;54.41
48053;BME280;33824;51.600;5.718;2023-05-01T10:05:44;101252.25;;;20.79;53.49
48053;BME280;33824;51.600;5.718;2023-05-01T10:08:10;101242.53;;;20.60;52.85
48053;BME280;33824;51.600;5.718;2023-05-01T10:10:40;101244.59;;;20.46;52.86
48053;BME280;33824;51.600;5.718;2023-05-01T10:13:16;101250.78;;;20.65;53.50
48053;BME280;33824;51.600;5.718;2023-05-01T10:15:43;101251.66;;;21.19;52.86
48053;BME280;33824;51.600;5.718;2023-05-01T10:18:11;101240.00;;;21.30;53.01
48053;BME280;33824;51.600;5.718;2023-05-01T10:20:36;101241.28;;;21.62;52.58
48053;BME280;33824;51.600;5.718;2023-05-01T10:23:02;101235.28;;;21.95;51.66
48053;BME280;33824;51.600;5.718;2023-05-01T10:25:28;101234.44;;;22.34;51.54
48053;BME280;33824;51.600;5.718;2023-05-01T10:27:55;101235.06;;;22.53;51.04
48053;BME280;33824;51.600;5.718;2023-05-01T10:30:21;101233.00;;;22.60;50.19
48053;BME280;33824;51.600;5.718;2023-05-01T10:32:47;101239.03;;;22.74;49.62
48053;BME280;33824;51.600;5.718;2023-05-01T10:35:26;101233.72;;;22.67;46.87
48053;BME280;33824;51.600;5.718;2023-05-01T10:38:05;101242.97;;;22.55;48.07
48053;BME280;33824;51.600;5.718;2023-05-01T10:43:17;101236.31;;;22.90;49.10
48053;BME280;33824;51.600;5.718;2023-05-01T10:45:44;101236.41;;;23.29;49.83
48053;BME280;33824;51.600;5.718;2023-05-01T10:48:11;101234.44;;;23.58;49.30
48053;BME280;33824;51.600;5.718;2023-05-01T10:53:43;101234.50;;;23.63;46.93
48053;BME280;33824;51.600;5.718;2023-05-01T10:59:00;101233.75;;;23.67;46.29
48053;BME280;33824;51.600;5.718;2023-05-01T11:01:36;101228.19;;;23.79;44.21
48053;BME280;33824;51.600;5.718;2023-05-01T11:07:15;101222.34;;;23.70;45.46
48053;BME280;33824;51.600;5.718;2023-05-01T11:09:53;101215.03;;;23.93;46.67
48053;BME280;33824;51.600;5.718;2023-05-01T11:15:32;101207.50;;;24.00;45.28
48053;BME280;33824;51.600;5.718;2023-05-01T11:17:59;101214.59;;;24.01;45.77
48053;BME280;33824;51.600;5.718;2023-05-01T11:22:51;101213.69;;;23.73;46.14
48053;BME280;33824;51.600;5.718;2023-05-01T11:25:25;101211.94;;;23.46;43.69
48053;BME280;33824;51.600;5.718;2023-05-01T11:27:53;101212.16;;;23.61;45.56
48053;BME280;33824;51.600;5.718;2023-05-01T11:30:20;101209.34;;;23.56;45.82
48053;BME280;33824;51.600;5.718;2023-05-01T11:32:48;101210.03;;;23.84;46.73
48053;BME280;33824;51.600;5.718;2023-05-01T11:35:19;101221.34;;;23.55;45.76
48053;BME280;33824;51.600;5.718;2023-05-01T11:37:45;101213.56;;;23.30;47.17
48053;BME280;33824;51.600;5.718;2023-05-01T11:40:27;101220.16;;;23.34;47.54
48053;BME280;33824;51.600;5.718;2023-05-01T11:43:01;101217.28;;;23.57;47.06
48053;BME280;33824;51.600;5.718;2023-05-01T11:45:28;101212.28;;;23.71;47.05
48053;BME280;33824;51.600;5.718;2023-05-01T11:47:53;101216.13;;;23.92;46.10
48053;BME280;33824;51.600;5.718;2023-05-01T11:50:19;101215.28;;;23.91;45.95
48053;BME280;33824;51.600;5.718;2023-05-01T11:52:48;101212.97;;;23.61;45.70
48053;BME280;33824;51.600;5.718;2023-05-01T11:55:14;101221.00;;;23.34;46.53
48053;BME280;33824;51.600;5.718;2023-05-01T11:57:51;101214.63;;;23.29;46.30
48053;BME280;33824;51.600;5.718;2023-05-01T12:00:38;101218.94;;;23.58;46.71
48053;BME280;33824;51.600;5.718;2023-05-01T12:03:08;101211.63;;;23.80;46.52
48053;BME280;33824;51.600;5.718;2023-05-01T12:05:43;101210.16;;;23.95;44.57
48053;BME280;33824;51.600;5.718;2023-05-01T12:08:12;101216.88;;;23.87;45.63
48053;BME280;33824;51.600;5.718;2023-05-01T12:10:41;101214.53;;;23.96;46.59
48053;BME280;33824;51.600;5.718;2023-05-01T12:13:09;101211.63;;;24.24;45.81
48053;BME280;33824;51.600;5.718;2023-05-01T12:15:36;101211.28;;;24.42;45.79
48053;BME280;33824;51.600;5.718;2023-05-01T12:18:06;101216.16;;;24.40;45.84
48053;BME280;33824;51.600;5.718;2023-05-01T12:20:33;101212.88;;;24.16;44.92
48053;BME280;33824;51.600;5.718;2023-05-01T12:23:00;101216.53;;;23.62;45.80
48053;BME280;33824;51.600;5.718;2023-05-01T12:25:33;101226.09;;;23.31;43.77
48053;BME280;33824;51.600;5.718;2023-05-01T12:28:07;101223.81;;;22.89;46.77
48053;BME280;33824;51.600;5.718;2023-05-01T12:30:34;101225.94;;;23.04;45.43
48053;BME280;33824;51.600;5.718;2023-05-01T12:33:07;101225.66;;;22.72;47.40
48053;BME280;33824;51.600;5.718;2023-05-01T12:35:33;101227.94;;;22.64;47.33
48053;BME280;33824;51.600;5.718;2023-05-01T12:37:58;101223.22;;;22.71;47.26
48053;BME280;33824;51.600;5.718;2023-05-01T12:40:25;101230.47;;;22.82;47.03
48053;BME280;33824;51.600;5.718;2023-05-01T12:42:57;101231.03;;;22.84;46.73
48053;BME280;33824;51.600;5.718;2023-05-01T12:45:23;101228.75;;;22.92;47.80
48053;BME280;33824;51.600;5.718;2023-05-01T12:47:49;101229.31;;;23.11;47.57
48053;BME280;33824;51.600;5.718;2023-05-01T12:50:15;101235.78;;;23.05;46.82
48053;BME280;33824;51.600;5.718;2023-05-01T12:52:41;101231.78;;;22.96;46.91
48053;BME280;33824;51.600;5.718;2023-05-01T12:55:07;101226.34;;;22.96;46.55
48053;BME280;33824;51.600;5.718;2023-05-01T12:57:33;101228.66;;;23.04;46.97
48053;BME280;33824;51.600;5.718;2023-05-01T13:00:01;101226.63;;;22.66;44.76
48053;BME280;33824;51.600;5.718;2023-05-01T13:02:31;101228.16;;;22.74;46.15
48053;BME280;33824;51.600;5.718;2023-05-01T13:05:07;101229.94;;;22.40;45.70
48053;BME280;33824;51.600;5.718;2023-05-01T13:07:34;101227.50;;;22.55;45.46
48053;BME280;33824;51.600;5.718;2023-05-01T13:10:00;101227.97;;;22.80;45.67
48053;BME280;33824;51.600;5.718;2023-05-01T13:12:27;101227.66;;;22.77;44.24
48053;BME280;33824;51.600;5.718;2023-05-01T13:14:54;101231.78;;;22.96;43.47
48053;BME280;33824;51.600;5.718;2023-05-01T13:17:24;101234.66;;;23.06;44.08
48053;BME280;33824;51.600;5.718;2023-05-01T13:20:01;101231.22;;;22.94;39.94
48053;BME280;33824;51.600;5.718;2023-05-01T13:22:34;101234.66;;;23.06;44.37
48053;BME280;33824;51.600;5.718;2023-05-01T13:25:03;101237.88;;;23.36;43.89
48053;BME280;33824;51.600;5.718;2023-05-01T13:29:56;101243.72;;;22.78;44.11
48053;BME280;33824;51.600;5.718;2023-05-01T13:32:23;101239.63;;;22.64;44.78
48053;BME280;33824;51.600;5.718;2023-05-01T13:34:50;101248.16;;;22.56;43.43
48053;BME280;33824;51.600;5.718;2023-05-01T13:37:15;101245.50;;;22.44;42.07
48053;BME280;33824;51.600;5.718;2023-05-01T13:39:45;101251.47;;;22.58;43.62
48053;BME280;33824;51.600;5.718;2023-05-01T13:42:12;101248.97;;;22.68;44.22
48053;BME280;33824;51.600;5.718;2023-05-01T13:44:50;101252.44;;;22.24;43.42
48053;BME280;33824;51.600;5.718;2023-05-01T13:47:17;101254.81;;;22.20;43.91
48053;BME280;33824;51.600;5.718;2023-05-01T13:49:43;101265.13;;;21.83;44.32
48053;BME280;33824;51.600;5.718;2023-05-01T13:52:19;101265.69;;;21.85;44.43
48053;BME280;33824;51.600;5.718;2023-05-01T13:54:46;101257.00;;;21.95;44.92
48053;BME280;33824;51.600;5.718;2023-05-01T13:57:13;101270.06;;;21.75;44.87
48053;BME280;33824;51.600;5.718;2023-05-01T13:59:41;101271.84;;;21.69;45.51
48053;BME280;33824;51.600;5.718;2023-05-01T14:02:19;101266.88;;;21.43;45.26
48053;BME280;33824;51.600;5.718;2023-05-01T14:04:46;101269.50;;;21.49;44.93
48053;BME280;33824;51.600;5.718;2023-05-01T14:07:23;101275.25;;;21.30;45.08
48053;BME280;33824;51.600;5.718;2023-05-01T14:09:54;101265.34;;;21.35;45.61
48053;BME280;33824;51.600;5.718;2023-05-01T14:12:28;101269.00;;;21.29;45.43
48053;BME280;33824;51.600;5.718;2023-05-01T14:14:55;101272.09;;;21.44;45.79
48053;BME280;33824;51.600;5.718;2023-05-01T14:17:33;101266.41;;;21.23;44.65
48053;BME280;33824;51.600;5.718;2023-05-01T14:20:05;101276.16;;;21.12;44.89
48053;BME280;33824;51.600;5.718;2023-05-01T14:22:38;101271.50;;;21.01;44.71
48053;BME280;33824;51.600;5.718;2023-05-01T14:25:29;101266.31;;;20.88;45.53
48053;BME280;33824;51.600;5.718;2023-05-01T14:27:57;101272.44;;;20.95;45.24
48053;BME280;33824;51.600;5.718;2023-05-01T14:30:32;101265.78;;;20.79;45.01
48053;BME280;33824;51.600;5.718;2023-05-01T14:33:06;101266.25;;;20.46;42.50
48053;BME280;33824;51.600;5.718;2023-05-01T14:35:33;101266.31;;;20.58;44.31
48053;BME280;33824;51.600;5.718;2023-05-01T14:38:09;101259.09;;;20.52;43.56
48053;BME280;33824;51.600;5.718;2023-05-01T14:40:35;101257.72;;;20.31;43.95
48053;BME280;33824;51.600;5.718;2023-05-01T14:43:00;101266.78;;;20.19;44.20
48053;BME280;33824;51.600;5.718;2023-05-01T14:45:27;101264.81;;;20.26;44.71
48053;BME280;33824;51.600;5.718;2023-05-01T14:47:52;101270.16;;;20.14;45.05
48053;BME280;33824;51.600;5.718;2023-05-01T14:50:20;101271.38;;;20.18;45.63
48053;BME280;33824;51.600;5.718;2023-05-01T14:52:46;101272.31;;;20.30;45.61
48053;BME280;33824;51.600;5.718;2023-05-01T14:55:16;101269.13;;;20.15;45.31
48053;BME280;33824;51.600;5.718;2023-05-01T14:57:43;101274.84;;;20.07;46.05
48053;BME280;33824;51.600;5.718;2023-05-01T15:00:09;101275.22;;;20.29;46.73
48053;BME280;33824;51.600;5.718;2023-05-01T15:02:35;101284.09;;;20.36;46.76
48053;BME280;33824;51.600;5.718;2023-05-01T15:05:01;101284.81;;;20.25;47.31
48053;BME280;33824;51.600;5.718;2023-05-01T15:07:27;101299.03;;;20.02;46.59
48053;BME280;33824;51.600;5.718;2023-05-01T15:09:53;101299.19;;;19.89;47.04
48053;BME280;33824;51.600;5.718;2023-05-01T15:12:18;101297.16;;;19.84;47.24
48053;BME280;33824;51.600;5.718;2023-05-01T15:14:44;101296.59;;;19.76;48.62
48053;BME280;33824;51.600;5.718;2023-05-01T15:17:09;101299.75;;;19.73;48.42
48053;BME280;33824;51.600;5.718;2023-05-01T15:19:35;101302.75;;;19.64;49.09
48053;BME280;33824;51.600;5.718;2023-05-01T15:22:01;101308.00;;;19.59;48.99
48053;BME280;33824;51.600;5.718;2023-05-01T15:24:29;101305.72;;;19.56;48.50
48053;BME280;33824;51.600;5.718;2023-05-01T15:26:54;101312.25;;;19.49;48.27
48053;BME280;33824;51.600;5.718;2023-05-01T15:29:20;101316.47;;;19.38;48.64
48053;BME280;33824;51.600;5.718;2023-05-01T15:31:45;101320.47;;;19.36;49.42
48053;BME280;33824;51.600;5.718;2023-05-01T15:34:12;101321.28;;;19.36;49.53
48053;BME280;33824;51.600;5.718;2023-05-01T15:36:37;101323.06;;;19.17;50.29
48053;BME280;33824;51.600;5.718;2023-05-01T15:39:03;101325.38;;;19.14;50.41
48053;BME280;33824;51.600;5.718;2023-05-01T15:41:30;101330.56;;;19.15;50.75
48053;BME280;33824;51.600;5.718;2023-05-01T15:43:55;101334.81;;;19.05;50.96
48053;BME280;33824;51.600;5.718;2023-05-01T15:46:21;101332.44;;;19.15;51.48
48053;BME280;33824;51.600;5.718;2023-05-01T15:48:47;101333.28;;;19.15;51.68
48053;BME280;33824;51.600;5.718;2023-05-01T15:51:13;101332.44;;;19.15;51.53
48053;BME280;33824;51.600;5.718;2023-05-01T15:53:39;101337.84;;;19.15;51.83
48053;BME280;33824;51.600;5.718;2023-05-01T15:56:04;101344.88;;;19.23;51.82
48053;BME280;33824;51.600;5.718;2023-05-01T15:58:30;101338.81;;;19.27;51.53
48053;BME280;33824;51.600;5.718;2023-05-01T16:00:55;101344.16;;;19.34;51.77
48053;BME280;33824;51.600;5.718;2023-05-01T16:03:21;101339.78;;;19.33;51.44
48053;BME280;33824;51.600;5.718;2023-05-01T16:05:47;101349.66;;;19.52;51.38
48053;BME280;33824;51.600;5.718;2023-05-01T16:08:13;101347.63;;;19.97;50.94
48053;BME280;33824;51.600;5.718;2023-05-01T16:10:38;101339.75;;;20.32;49.51
48053;BME280;33824;51.600;5.718;2023-05-01T16:13:05;101345.97;;;19.96;50.04
48053;BME280;33824;51.600;5.718;2023-05-01T16:15:31;101341.38;;;19.96;50.07
48053;BME280;33824;51.600;5.718;2023-05-01T16:18:01;101334.97;;;19.91;50.37
48053;BME280;33824;51.600;5.718;2023-05-01T16:20:31;101335.50;;;19.99;50.68
48053;BME280;33824;51.600;5.718;2023-05-01T16:22:58;101345.41;;;19.87;51.10
48053;BME280;33824;51.600;5.718;2023-05-01T16:25:24;101339.69;;;19.77;51.51
48053;BME280;33824;51.600;5.718;2023-05-01T16:27:50;101346.09;;;19.58;51.27
48053;BME280;33824;51.600;5.718;2023-05-01T16:30:15;101346.63;;;19.42;52.22
48053;BME280;33824;51.600;5.718;2023-05-01T16:32:42;101343.13;;;19.66;52.04
48053;BME280;33824;51.600;5.718;2023-05-01T16:35:26;101348.78;;;19.83;52.38
48053;BME280;33824;51.600;5.718;2023-05-01T16:37:58;101351.69;;;20.06;51.99
48053;BME280;33824;51.600;5.718;2023-05-01T16:40:23;101354.38;;;20.31;52.05
48053;BME280;33824;51.600;5.718;2023-05-01T16:42:52;101351.97;;;19.98;51.77
48053;BME280;33824;51.600;5.718;2023-05-01T16:45:19;101364.06;;;19.95;51.89
48053;BME280;33824;51.600;5.718;2023-05-01T16:47:45;101366.69;;;19.84;52.01
48053;BME280;33824;51.600;5.718;2023-05-01T16:50:11;101383.75;;;19.84;52.88
48053;BME280;33824;51.600;5.718;2023-05-01T16:52:37;101371.72;;;19.80;52.90
48053;BME280;33824;51.600;5.718;2023-05-01T16:55:04;101380.66;;;19.81;53.05
48053;BME280;33824;51.600;5.718;2023-05-01T16:57:31;101376.91;;;19.82;53.33
48053;BME280;33824;51.600;5.718;2023-05-01T16:59:56;101370.16;;;19.91;53.23
48053;BME280;33824;51.600;5.718;2023-05-01T17:02:22;101378.59;;;19.76;52.67
48053;BME280;33824;51.600;5.718;2023-05-01T17:04:47;101378.13;;;19.61;52.84
48053;BME280;33824;51.600;5.718;2023-05-01T17:07:13;101383.63;;;19.73;53.15
48053;BME280;33824;51.600;5.718;2023-05-01T17:09:38;101374.75;;;19.66;53.40
48053;BME280;33824;51.600;5.718;2023-05-01T17:12:04;101383.53;;;19.61;53.35
48053;BME280;33824;51.600;5.718;2023-05-01T17:14:30;101380.63;;;19.56;53.35
48053;BME280;33824;51.600;5.718;2023-05-01T17:16:55;101392.44;;;19.30;53.87
48053;BME280;33824;51.600;5.718;2023-05-01T17:19:24;101386.06;;;19.18;54.24
48053;BME280;33824;51.600;5.718;2023-05-01T17:21:50;101372.00;;;19.09;54.04
48053;BME280;33824;51.600;5.718;2023-05-01T17:24:15;101387.00;;;19.05;54.74
48053;BME280;33824;51.600;5.718;2023-05-01T17:26:41;101386.22;;;18.92;54.26
48053;BME280;33824;51.600;5.718;2023-05-01T17:29:06;101386.94;;;18.74;55.06
48053;BME280;33824;51.600;5.718;2023-05-01T17:31:32;101390.88;;;18.78;54.98
48053;BME280;33824;51.600;5.718;2023-05-01T17:33:58;101393.75;;;18.83;55.42
48053;BME280;33824;51.600;5.718;2023-05-01T17:36:23;101396.06;;;18.73;55.56
48053;BME280;33824;51.600;5.718;2023-05-01T17:38:49;101396.13;;;18.53;55.84
48053;BME280;33824;51.600;5.718;2023-05-01T17:41:15;101389.28;;;18.51;56.22
48053;BME280;33824;51.600;5.718;2023-05-01T17:43:41;101400.94;;;18.38;56.20
48053;BME280;33824;51.600;5.718;2023-05-01T17:46:09;101397.41;;;18.31;56.50
48053;BME280;33824;51.600;5.718;2023-05-01T17:48:35;101398.25;;;18.32;56.63
48053;BME280;33824;51.600;5.718;2023-05-01T17:51:01;101402.38;;;18.34;56.72
48053;BME280;33824;51.600;5.718;2023-05-01T17:53:26;101410.97;;;18.18;56.83
48053;BME280;33824;51.600;5.718;2023-05-01T17:55:52;101405.13;;;18.08;57.61
48053;BME280;33824;51.600;5.718;2023-05-01T17:58:17;101409.50;;;17.96;57.57
48053;BME280;33824;51.600;5.718;2023-05-01T18:00:43;101420.72;;;17.80;58.18
48053;BME280;33824;51.600;5.718;2023-05-01T18:03:09;101424.25;;;17.73;58.52
48053;BME280;33824;51.600;5.718;2023-05-01T18:05:34;101428.59;;;17.68;58.38
48053;BME280;33824;51.600;5.718;2023-05-01T18:08:00;101430.47;;;17.61;58.52
48053;BME280;33824;51.600;5.718;2023-05-01T18:10:26;101430.22;;;17.49;58.89
48053;BME280;33824;51.600;5.718;2023-05-01T18:12:56;101437.88;;;17.46;59.30
48053;BME280;33824;51.600;5.718;2023-05-01T18:15:22;101438.50;;;17.41;59.46
48053;BME280;33824;51.600;5.718;2023-05-01T18:17:48;101439.28;;;17.35;59.93
48053;BME280;33824;51.600;5.718;2023-05-01T18:20:13;101441.31;;;17.20;61.13
48053;BME280;33824;51.600;5.718;2023-05-01T18:22:39;101445.25;;;17.11;60.97
48053;BME280;33824;51.600;5.718;2023-05-01T18:25:05;101449.13;;;16.95;61.38
48053;BME280;33824;51.600;5.718;2023-05-01T18:27:31;101457.81;;;16.91;61.22
48053;BME280;33824;51.600;5.718;2023-05-01T18:29:56;101458.19;;;16.81;61.34
48053;BME280;33824;51.600;5.718;2023-05-01T18:32:22;101468.28;;;16.72;61.91
48053;BME280;33824;51.600;5.718;2023-05-01T18:34:47;101463.47;;;16.61;62.89
48053;BME280;33824;51.600;5.718;2023-05-01T18:37:16;101470.03;;;16.59;62.45
48053;BME280;33824;51.600;5.718;2023-05-01T18:39:42;101466.47;;;16.52;63.14
48053;BME280;33824;51.600;5.718;2023-05-01T18:42:08;101463.31;;;16.42;63.37
48053;BME280;33824;51.600;5.718;2023-05-01T18:44:34;101470.50;;;16.35;64.03
48053;BME280;33824;51.600;5.718;2023-05-01T18:46:59;101482.66;;;16.24;64.69
48053;BME280;33824;51.600;5.718;2023-05-01T18:49:25;101484.44;;;16.17;64.20
48053;BME280;33824;51.600;5.718;2023-05-01T18:51:51;101487.28;;;16.09;65.33
48053;BME280;33824;51.600;5.718;2023-05-01T18:54:16;101491.31;;;15.98;66.61
48053;BME280;33824;51.600;5.718;2023-05-01T18:56:42;101492.91;;;15.93;66.40
48053;BME280;33824;51.600;5.718;2023-05-01T18:59:10;101502.34;;;15.82;67.11
48053;BME280;33824;51.600;5.718;2023-05-01T19:01:38;101512.66;;;15.78;66.77
48053;BME280;33824;51.600;5.718;2023-05-01T19:04:03;101512.22;;;15.75;66.68
48053;BME280;33824;51.600;5.718;2023-05-01T19:06:29;101509.25;;;15.70;66.78
48053;BME280;33824;51.600;5.718;2023-05-01T19:08:55;101511.03;;;15.63;67.23
48053;BME280;33824;51.600;5.718;2023-05-01T19:11:21;101514.22;;;15.52;68.71
48053;BME280;33824;51.600;5.718;2023-05-01T19:13:47;101506.25;;;15.44;68.70